Flight Track Log - Related Links

Times and Time Zones

All times are in EDT time to prevent confusion due to time zone crossing. See the SWA34 flight status page for this flight to view local times or setup timezone preferences in your user account.

Time Position Orientation Groundspeed Altitude Reporting Facility
EDT Latitude Longitude Course Direction KTS MPH feet Rate Location/Type
Tue 06:25:10 PM 36.1975 -95.8164 87° East 204 235 2,900  Level Kansas City Center
Tue 06:26:04 PM 36.2011 -95.7358 87° East 279 321 5,100 2,656 Climbing Kansas City Center
Tue 06:27:12 PM 36.2297 -95.6461 68° East 282 325 8,300 2,723 Climbing Kansas City Center
Tue 06:28:14 PM 36.2744 -95.5589 58° Northeast 295 339 11,000 2,758 Climbing Kansas City Center
Tue 06:29:16 PM 36.3244 -95.4586 58° Northeast 333 383 14,000 2,855 Climbing Kansas City Center
Tue 06:30:18 PM 36.3819 -95.3442 58° Northeast 362 417 16,900 2,516 Climbing Kansas City Center
Tue 06:31:20 PM 36.4381 -95.2331 58° Northeast 377 434 19,200 2,468 Climbing Kansas City Center
Tue 06:32:22 PM 36.4956 -95.1175 58° Northeast 389 448 22,000 2,129 Climbing Kansas City Center
Tue 06:33:24 PM 36.5583 -94.9889 59° Northeast 400 460 23,600 1,887 Climbing Kansas City Center
Tue 06:34:26 PM 36.6308 -94.8436 58° Northeast 409 471 25,900 2,129 Climbing Kansas City Center
Tue 06:35:28 PM 36.6922 -94.7153 59° Northeast 424 488 28,000 1,839 Climbing Kansas City Center
Tue 06:36:30 PM 36.7547 -94.5883 58° Northeast 429 494 29,700 1,694 Climbing Kansas City Center
Tue 06:37:32 PM 36.8186 -94.4594 58° Northeast 434 499 31,500 1,597 Climbing Kansas City Center
Tue 06:38:34 PM 36.8806 -94.3311 59° Northeast 432 497 33,000 726 Climbing Kansas City Center
Tue 06:39:36 PM 36.9408 -94.2017 60° Northeast 432 497 33,000 484 Level Kansas City Center
Tue 06:40:38 PM 37.0164 -94.0433 59° Northeast 440 506 34,000 968 Climbing Kansas City Center
Tue 06:41:40 PM 37.0800 -93.9119 59° Northeast 441 507 35,000 484 Climbing Kansas City Center
Tue 06:42:42 PM 37.1408 -93.7842 59° Northeast 438 504 35,000  Level Kansas City Center
Tue 06:43:44 PM 37.2025 -93.6550 59° Northeast 434 499 35,000  Level Kansas City Center
Tue 06:44:46 PM 37.2633 -93.5261 59° Northeast 430 495 35,000  Level Kansas City Center
Tue 06:45:49 PM 37.3264 -93.3981 58° Northeast 430 495 35,000  Level Kansas City Center
Tue 06:46:51 PM 37.4167 -93.2600 51° Northeast 429 494 35,000  Level Kansas City Center
Tue 06:47:53 PM 37.5061 -93.1578 42° Northeast 430 495 35,000 -387 Level Kansas City Center
Tue 06:48:55 PM 37.5975 -93.0575 41° Northeast 433 498 34,200 -871 Descending Kansas City Center
Tue 06:49:57 PM 37.6858 -92.9514 44° Northeast 436 502 33,200 -919 Descending Kansas City Center
Tue 06:50:59 PM 37.7750 -92.8444 43° Northeast 438 504 32,300 -968 Descending Kansas City Center
Tue 06:52:01 PM 37.8750 -92.7281 43° Northeast 435 501 31,200 -629 Descending Kansas City Center
Tue 06:53:03 PM 37.9503 -92.6083 51° Northeast 439 505 31,000 -97 Descending Kansas City Center
Tue 06:54:05 PM 38.0200 -92.4786 56° Northeast 445 512 31,000  Level Kansas City Center
Tue 06:55:07 PM 38.0922 -92.3483 55° Northeast 451 519 31,000  Level Kansas City Center
Tue 06:56:09 PM 38.1617 -92.2167 56° Northeast 451 519 31,000  Level Kansas City Center
Tue 06:57:11 PM 38.2422 -92.0639 56° Northeast 444 511 31,000  Level Kansas City Center
Tue 06:58:13 PM 38.3106 -91.9342 56° Northeast 441 507 31,000 -387 Level Kansas City Center
Tue 06:59:15 PM 38.3797 -91.8042 56° Northeast 440 506 30,200 -1,645 Descending Kansas City Center
Tue 07:00:17 PM 38.4475 -91.6778 56° Northeast 437 503 27,600 -2,419 Descending Kansas City Center
Tue 07:01:19 PM 38.5111 -91.5558 56° Northeast 425 489 25,200 -2,274 Descending Kansas City Center
Tue 07:02:21 PM 38.5711 -91.4392 57° Northeast 407 468 22,900 -2,226 Descending Kansas City Center
Tue 07:03:23 PM 38.6308 -91.3286 55° Northeast 393 452 20,600 -2,371 Descending Kansas City Center
Tue 07:04:25 PM 38.6953 -91.1978 58° Northeast 375 432 18,000 -1,984 Descending Kansas City Center
Tue 07:05:27 PM 38.7153 -91.0794 78° East 355 409 16,500 -1,355 Descending Kansas City Center
Tue 07:06:29 PM 38.7322 -90.9592 80° East 347 399 15,200 -1,645 Descending Kansas City Center
Tue 07:07:31 PM 38.7244 -90.8369 95° East 347 399 13,100 -2,081 Descending Kansas City Center
Tue 07:08:33 PM 38.7208 -90.7186 92° East 340 391 10,900 -1,597 Descending Kansas City Center
Tue 07:09:35 PM 38.7175 -90.6086 92° East 326 375 9,800 -1,452 Descending Kansas City Center
Tue 07:10:37 PM 38.6994 -90.4967 102° East 292 336 7,900 -1,355 Descending Kansas City Center
Tue 07:11:39 PM 38.6608 -90.4181 122° Southeast 272 313 7,000 -919 Descending Kansas City Center
Tue 07:12:41 PM 38.6242 -90.3439 122° Southeast 260 299 6,000 -823 Descending Kansas City Center
Tue 07:13:43 PM 38.6042 -90.2742 110° East 238 274 5,300 -1,113 Descending Kansas City Center
Tue 07:14:45 PM 38.6581 -90.2267 35° Northeast 209 241 3,700 -1,500 Descending Kansas City Center
Tue 07:15:47 PM 38.6997 -90.2600 328° Northwest 200 230 2,200 -1,065 Descending Kansas City Center
Tue 07:16:49 PM 38.7239 -90.3089 302° West 181 208 1,500 -774 Descending Kansas City Center
Tue 07:17:51 PM 38.7472 -90.3567 302° West 163 188 600 -871 Descending Kansas City Center

Login

Don't have an account? Register now (free) for customized features, flight alerts, and more!